sensor_id;sensor_type;location;lat;lon;timestamp;P1;durP1;ratioP1;P2;durP2;ratioP2
10150;SDS011;5116;52.318;4.644;2023-01-01T00:01:43;38.90;;;30.13;;
10150;SDS011;5116;52.318;4.644;2023-01-01T00:04:12;40.77;;;33.03;;
10150;SDS011;5116;52.318;4.644;2023-01-01T00:06:40;32.27;;;24.70;;
10150;SDS011;5116;52.318;4.644;2023-01-01T00:09:08;31.37;;;24.30;;
10150;SDS011;5116;52.318;4.644;2023-01-01T00:11:54;22.13;;;18.83;;
10150;SDS011;5116;52.318;4.644;2023-01-01T00:14:21;26.50;;;20.33;;
10150;SDS011;5116;52.318;4.644;2023-01-01T00:16:48;17.30;;;12.97;;
10150;SDS011;5116;52.318;4.644;2023-01-01T00:19:16;23.33;;;18.27;;
10150;SDS011;5116;52.318;4.644;2023-01-01T00:21:43;21.67;;;16.30;;
10150;SDS011;5116;52.318;4.644;2023-01-01T00:24:11;23.80;;;18.33;;
10150;SDS011;5116;52.318;4.644;2023-01-01T00:26:39;17.10;;;13.17;;
10150;SDS011;5116;52.318;4.644;2023-01-01T00:29:06;16.63;;;13.70;;
10150;SDS011;5116;52.318;4.644;2023-01-01T00:31:33;18.17;;;13.90;;
10150;SDS011;5116;52.318;4.644;2023-01-01T00:34:00;17.17;;;12.47;;
10150;SDS011;5116;52.318;4.644;2023-01-01T00:36:28;17.07;;;13.10;;
10150;SDS011;5116;52.318;4.644;2023-01-01T00:38:56;12.87;;;10.57;;
10150;SDS011;5116;52.318;4.644;2023-01-01T00:41:23;12.90;;;10.60;;
10150;SDS011;5116;52.318;4.644;2023-01-01T00:43:50;17.70;;;12.77;;
10150;SDS011;5116;52.318;4.644;2023-01-01T00:46:18;13.93;;;11.03;;
10150;SDS011;5116;52.318;4.644;2023-01-01T00:48:45;9.50;;;8.00;;
10150;SDS011;5116;52.318;4.644;2023-01-01T00:51:13;11.20;;;9.00;;
10150;SDS011;5116;52.318;4.644;2023-01-01T00:53:40;17.10;;;10.53;;
10150;SDS011;5116;52.318;4.644;2023-01-01T00:56:07;10.63;;;8.00;;
10150;SDS011;5116;52.318;4.644;2023-01-01T00:58:35;11.30;;;7.97;;
10150;SDS011;5116;52.318;4.644;2023-01-01T01:01:02;6.53;;;4.47;;
10150;SDS011;5116;52.318;4.644;2023-01-01T01:03:30;5.77;;;4.73;;
10150;SDS011;5116;52.318;4.644;2023-01-01T01:08:32;4.97;;;4.50;;
10150;SDS011;5116;52.318;4.644;2023-01-01T01:13:56;6.80;;;5.73;;
10150;SDS011;5116;52.318;4.644;2023-01-01T01:16:24;8.80;;;5.30;;
10150;SDS011;5116;52.318;4.644;2023-01-01T01:18:53;6.57;;;4.50;;
10150;SDS011;5116;52.318;4.644;2023-01-01T01:21:21;4.53;;;3.70;;
10150;SDS011;5116;52.318;4.644;2023-01-01T01:23:49;3.73;;;3.23;;
10150;SDS011;5116;52.318;4.644;2023-01-01T01:26:18;5.07;;;3.80;;
10150;SDS011;5116;52.318;4.644;2023-01-01T01:28:46;4.47;;;4.03;;
10150;SDS011;5116;52.318;4.644;2023-01-01T01:31:16;4.77;;;3.50;;
10150;SDS011;5116;52.318;4.644;2023-01-01T01:33:44;5.77;;;3.50;;
10150;SDS011;5116;52.318;4.644;2023-01-01T01:36:12;4.67;;;3.50;;
10150;SDS011;5116;52.318;4.644;2023-01-01T01:38:40;5.57;;;3.47;;
10150;SDS011;5116;52.318;4.644;2023-01-01T01:41:07;3.23;;;2.93;;
10150;SDS011;5116;52.318;4.644;2023-01-01T01:43:53;3.03;;;2.73;;
10150;SDS011;5116;52.318;4.644;2023-01-01T01:46:24;4.83;;;3.37;;
10150;SDS011;5116;52.318;4.644;2023-01-01T01:48:52;3.83;;;3.03;;
10150;SDS011;5116;52.318;4.644;2023-01-01T01:51:22;3.63;;;2.93;;
10150;SDS011;5116;52.318;4.644;2023-01-01T01:53:51;2.93;;;2.17;;
10150;SDS011;5116;52.318;4.644;2023-01-01T01:56:22;4.00;;;1.97;;
10150;SDS011;5116;52.318;4.644;2023-01-01T01:58:51;1.97;;;1.67;;
10150;SDS011;5116;52.318;4.644;2023-01-01T02:01:22;3.37;;;2.67;;
10150;SDS011;5116;52.318;4.644;2023-01-01T02:03:56;2.33;;;2.13;;
10150;SDS011;5116;52.318;4.644;2023-01-01T02:06:25;2.77;;;1.93;;
10150;SDS011;5116;52.318;4.644;2023-01-01T02:08:53;2.00;;;1.77;;
10150;SDS011;5116;52.318;4.644;2023-01-01T02:11:22;2.80;;;2.03;;
10150;SDS011;5116;52.318;4.644;2023-01-01T02:13:49;2.30;;;2.10;;
10150;SDS011;5116;52.318;4.644;2023-01-01T02:18:47;4.00;;;2.00;;
10150;SDS011;5116;52.318;4.644;2023-01-01T02:21:21;2.20;;;2.00;;
10150;SDS011;5116;52.318;4.644;2023-01-01T02:23:52;2.83;;;1.80;;
10150;SDS011;5116;52.318;4.644;2023-01-01T02:26:30;2.20;;;1.77;;
10150;SDS011;5116;52.318;4.644;2023-01-01T02:31:43;1.27;;;1.20;;
10150;SDS011;5116;52.318;4.644;2023-01-01T02:34:13;1.40;;;1.30;;
10150;SDS011;5116;52.318;4.644;2023-01-01T02:36:47;3.10;;;1.60;;
10150;SDS011;5116;52.318;4.644;2023-01-01T02:39:15;1.50;;;1.40;;
10150;SDS011;5116;52.318;4.644;2023-01-01T02:41:43;1.67;;;1.40;;
10150;SDS011;5116;52.318;4.644;2023-01-01T02:44:12;1.17;;;1.17;;
10150;SDS011;5116;52.318;4.644;2023-01-01T02:46:39;1.10;;;1.00;;
10150;SDS011;5116;52.318;4.644;2023-01-01T02:49:08;2.00;;;1.27;;
10150;SDS011;5116;52.318;4.644;2023-01-01T02:51:58;1.63;;;1.53;;
10150;SDS011;5116;52.318;4.644;2023-01-01T02:54:32;3.67;;;1.40;;
10150;SDS011;5116;52.318;4.644;2023-01-01T02:59:58;1.10;;;1.10;;
10150;SDS011;5116;52.318;4.644;2023-01-01T03:03:13;2.30;;;1.17;;
10150;SDS011;5116;52.318;4.644;2023-01-01T03:11:19;1.20;;;1.20;;
10150;SDS011;5116;52.318;4.644;2023-01-01T03:14:00;1.07;;;1.07;;
10150;SDS011;5116;52.318;4.644;2023-01-01T03:16:30;2.57;;;1.50;;
10150;SDS011;5116;52.318;4.644;2023-01-01T03:19:07;1.43;;;1.10;;
10150;SDS011;5116;52.318;4.644;2023-01-01T03:22:11;3.33;;;1.20;;
10150;SDS011;5116;52.318;4.644;2023-01-01T03:24:32;1.00;;;1.00;;
10150;SDS011;5116;52.318;4.644;2023-01-01T03:27:05;4.07;;;1.03;;
10150;SDS011;5116;52.318;4.644;2023-01-01T03:29:34;1.00;;;1.00;;
10150;SDS011;5116;52.318;4.644;2023-01-01T03:32:05;2.03;;;0.90;;
10150;SDS011;5116;52.318;4.644;2023-01-01T03:34:37;1.23;;;0.97;;
10150;SDS011;5116;52.318;4.644;2023-01-01T03:37:08;1.10;;;0.93;;
10150;SDS011;5116;52.318;4.644;2023-01-01T03:39:46;0.80;;;0.80;;
10150;SDS011;5116;52.318;4.644;2023-01-01T03:44:46;1.13;;;1.03;;
10150;SDS011;5116;52.318;4.644;2023-01-01T03:47:15;1.70;;;0.83;;
10150;SDS011;5116;52.318;4.644;2023-01-01T03:49:43;1.20;;;1.13;;
10150;SDS011;5116;52.318;4.644;2023-01-01T04:00:24;0.93;;;0.93;;
10150;SDS011;5116;52.318;4.644;2023-01-01T04:02:55;2.33;;;1.70;;
10150;SDS011;5116;52.318;4.644;2023-01-01T04:05:22;2.33;;;0.90;;
10150;SDS011;5116;52.318;4.644;2023-01-01T04:07:50;1.20;;;0.90;;
10150;SDS011;5116;52.318;4.644;2023-01-01T04:10:18;0.80;;;0.80;;
10150;SDS011;5116;52.318;4.644;2023-01-01T04:12:50;2.30;;;0.97;;
10150;SDS011;5116;52.318;4.644;2023-01-01T04:15:18;1.27;;;0.97;;
10150;SDS011;5116;52.318;4.644;2023-01-01T04:17:46;0.70;;;0.70;;
10150;SDS011;5116;52.318;4.644;2023-01-01T04:20:13;0.93;;;0.90;;
10150;SDS011;5116;52.318;4.644;2023-01-01T04:22:41;0.60;;;0.60;;
10150;SDS011;5116;52.318;4.644;2023-01-01T04:25:08;1.87;;;0.77;;
10150;SDS011;5116;52.318;4.644;2023-01-01T04:27:36;0.67;;;0.67;;
10150;SDS011;5116;52.318;4.644;2023-01-01T04:30:05;1.20;;;1.00;;
10150;SDS011;5116;52.318;4.644;2023-01-01T04:32:33;0.97;;;0.97;;
10150;SDS011;5116;52.318;4.644;2023-01-01T04:35:00;1.87;;;0.90;;
10150;SDS011;5116;52.318;4.644;2023-01-01T04:37:27;0.77;;;0.77;;
10150;SDS011;5116;52.318;4.644;2023-01-01T04:39:54;2.17;;;0.80;;
10150;SDS011;5116;52.318;4.644;2023-01-01T04:42:22;0.60;;;0.60;;
10150;SDS011;5116;52.318;4.644;2023-01-01T04:44:49;2.27;;;1.23;;
10150;SDS011;5116;52.318;4.644;2023-01-01T04:47:16;0.83;;;0.83;;
10150;SDS011;5116;52.318;4.644;2023-01-01T04:49:44;1.13;;;0.93;;
10150;SDS011;5116;52.318;4.644;2023-01-01T04:52:12;0.87;;;0.87;;
10150;SDS011;5116;52.318;4.644;2023-01-01T04:54:39;1.70;;;0.80;;
10150;SDS011;5116;52.318;4.644;2023-01-01T04:57:06;2.00;;;0.70;;
10150;SDS011;5116;52.318;4.644;2023-01-01T04:59:33;0.87;;;0.67;;
10150;SDS011;5116;52.318;4.644;2023-01-01T05:02:01;0.90;;;0.90;;
10150;SDS011;5116;52.318;4.644;2023-01-01T05:04:28;1.60;;;0.90;;
10150;SDS011;5116;52.318;4.644;2023-01-01T05:06:56;2.37;;;1.20;;
10150;SDS011;5116;52.318;4.644;2023-01-01T05:09:23;0.87;;;0.87;;
10150;SDS011;5116;52.318;4.644;2023-01-01T05:11:50;0.80;;;0.80;;
10150;SDS011;5116;52.318;4.644;2023-01-01T05:14:20;2.47;;;1.00;;
10150;SDS011;5116;52.318;4.644;2023-01-01T05:16:47;1.03;;;0.67;;
10150;SDS011;5116;52.318;4.644;2023-01-01T05:19:15;1.10;;;1.00;;
10150;SDS011;5116;52.318;4.644;2023-01-01T05:21:43;0.93;;;0.93;;
10150;SDS011;5116;52.318;4.644;2023-01-01T05:24:11;1.60;;;1.27;;
10150;SDS011;5116;52.318;4.644;2023-01-01T05:26:40;0.93;;;0.93;;
10150;SDS011;5116;52.318;4.644;2023-01-01T05:29:08;1.30;;;1.20;;
10150;SDS011;5116;52.318;4.644;2023-01-01T05:31:43;0.90;;;0.90;;
10150;SDS011;5116;52.318;4.644;2023-01-01T05:34:10;1.03;;;1.03;;
10150;SDS011;5116;52.318;4.644;2023-01-01T05:36:38;0.90;;;0.70;;
10150;SDS011;5116;52.318;4.644;2023-01-01T05:39:06;1.00;;;0.97;;
10150;SDS011;5116;52.318;4.644;2023-01-01T05:41:35;0.80;;;0.80;;
10150;SDS011;5116;52.318;4.644;2023-01-01T05:44:03;1.30;;;1.20;;
10150;SDS011;5116;52.318;4.644;2023-01-01T05:46:31;0.90;;;0.73;;
10150;SDS011;5116;52.318;4.644;2023-01-01T05:48:58;0.80;;;0.80;;
10150;SDS011;5116;52.318;4.644;2023-01-01T05:51:27;1.03;;;0.97;;
10150;SDS011;5116;52.318;4.644;2023-01-01T05:53:55;1.00;;;0.90;;
10150;SDS011;5116;52.318;4.644;2023-01-01T05:56:23;2.70;;;1.20;;
10150;SDS011;5116;52.318;4.644;2023-01-01T05:58:50;0.80;;;0.80;;
10150;SDS011;5116;52.318;4.644;2023-01-01T06:01:19;1.07;;;0.97;;
10150;SDS011;5116;52.318;4.644;2023-01-01T06:03:47;1.77;;;1.33;;
10150;SDS011;5116;52.318;4.644;2023-01-01T06:06:18;3.07;;;1.13;;
10150;SDS011;5116;52.318;4.644;2023-01-01T06:08:50;1.10;;;1.00;;
10150;SDS011;5116;52.318;4.644;2023-01-01T06:11:18;1.77;;;0.90;;
10150;SDS011;5116;52.318;4.644;2023-01-01T06:13:45;1.30;;;1.10;;
10150;SDS011;5116;52.318;4.644;2023-01-01T06:16:13;3.00;;;1.13;;
10150;SDS011;5116;52.318;4.644;2023-01-01T06:18:40;2.30;;;1.00;;
10150;SDS011;5116;52.318;4.644;2023-01-01T06:21:09;1.43;;;1.30;;
10150;SDS011;5116;52.318;4.644;2023-01-01T06:23:36;3.07;;;0.87;;
10150;SDS011;5116;52.318;4.644;2023-01-01T06:26:11;1.20;;;1.07;;
10150;SDS011;5116;52.318;4.644;2023-01-01T06:28:39;1.30;;;1.00;;
10150;SDS011;5116;52.318;4.644;2023-01-01T06:31:07;0.77;;;0.77;;
10150;SDS011;5116;52.318;4.644;2023-01-01T06:33:35;1.50;;;1.00;;
10150;SDS011;5116;52.318;4.644;2023-01-01T06:36:04;0.97;;;0.97;;
10150;SDS011;5116;52.318;4.644;2023-01-01T06:38:32;1.37;;;1.10;;
10150;SDS011;5116;52.318;4.644;2023-01-01T06:41:00;1.03;;;0.93;;
10150;SDS011;5116;52.318;4.644;2023-01-01T06:43:32;1.53;;;1.13;;
10150;SDS011;5116;52.318;4.644;2023-01-01T06:46:00;0.83;;;0.83;;
10150;SDS011;5116;52.318;4.644;2023-01-01T06:48:28;1.47;;;1.13;;
10150;SDS011;5116;52.318;4.644;2023-01-01T06:50:56;1.43;;;1.13;;
10150;SDS011;5116;52.318;4.644;2023-01-01T06:53:24;0.77;;;0.73;;
10150;SDS011;5116;52.318;4.644;2023-01-01T06:55:51;1.20;;;1.10;;
10150;SDS011;5116;52.318;4.644;2023-01-01T06:58:22;1.27;;;0.90;;
10150;SDS011;5116;52.318;4.644;2023-01-01T07:00:50;2.20;;;1.20;;
10150;SDS011;5116;52.318;4.644;2023-01-01T07:03:17;0.90;;;0.90;;
10150;SDS011;5116;52.318;4.644;2023-01-01T07:05:44;2.90;;;0.90;;
10150;SDS011;5116;52.318;4.644;2023-01-01T07:08:12;0.77;;;0.77;;
10150;SDS011;5116;52.318;4.644;2023-01-01T07:10:39;1.87;;;0.90;;
10150;SDS011;5116;52.318;4.644;2023-01-01T07:13:06;1.17;;;0.90;;
10150;SDS011;5116;52.318;4.644;2023-01-01T07:15:33;1.17;;;0.97;;
10150;SDS011;5116;52.318;4.644;2023-01-01T07:18:01;0.90;;;0.90;;
10150;SDS011;5116;52.318;4.644;2023-01-01T07:20:28;2.10;;;1.13;;
10150;SDS011;5116;52.318;4.644;2023-01-01T07:22:55;1.03;;;0.90;;
10150;SDS011;5116;52.318;4.644;2023-01-01T07:25:23;1.50;;;1.00;;
10150;SDS011;5116;52.318;4.644;2023-01-01T07:27:51;0.83;;;0.70;;
10150;SDS011;5116;52.318;4.644;2023-01-01T07:30:18;2.20;;;1.30;;
10150;SDS011;5116;52.318;4.644;2023-01-01T07:32:45;1.10;;;1.00;;
10150;SDS011;5116;52.318;4.644;2023-01-01T07:35:13;3.27;;;1.00;;
10150;SDS011;5116;52.318;4.644;2023-01-01T07:37:40;3.10;;;0.90;;
10150;SDS011;5116;52.318;4.644;2023-01-01T07:40:07;1.30;;;1.20;;
10150;SDS011;5116;52.318;4.644;2023-01-01T07:42:35;0.80;;;0.70;;
10150;SDS011;5116;52.318;4.644;2023-01-01T07:45:02;0.63;;;0.63;;
10150;SDS011;5116;52.318;4.644;2023-01-01T07:47:29;0.80;;;0.80;;
10150;SDS011;5116;52.318;4.644;2023-01-01T07:49:58;1.60;;;1.23;;
10150;SDS011;5116;52.318;4.644;2023-01-01T07:52:27;1.00;;;0.93;;
10150;SDS011;5116;52.318;4.644;2023-01-01T07:54:54;1.70;;;1.27;;
10150;SDS011;5116;52.318;4.644;2023-01-01T07:57:21;2.90;;;1.33;;
10150;SDS011;5116;52.318;4.644;2023-01-01T07:59:49;6.93;;;1.00;;
10150;SDS011;5116;52.318;4.644;2023-01-01T08:02:16;1.43;;;1.07;;
10150;SDS011;5116;52.318;4.644;2023-01-01T08:04:43;1.13;;;0.90;;
10150;SDS011;5116;52.318;4.644;2023-01-01T08:07:10;0.83;;;0.83;;
10150;SDS011;5116;52.318;4.644;2023-01-01T08:09:38;0.73;;;0.73;;
10150;SDS011;5116;52.318;4.644;2023-01-01T08:12:05;0.90;;;0.90;;
10150;SDS011;5116;52.318;4.644;2023-01-01T08:14:32;0.97;;;0.97;;
10150;SDS011;5116;52.318;4.644;2023-01-01T08:17:00;1.47;;;1.33;;
10150;SDS011;5116;52.318;4.644;2023-01-01T08:19:27;2.60;;;0.73;;
10150;SDS011;5116;52.318;4.644;2023-01-01T08:21:54;1.37;;;1.00;;
10150;SDS011;5116;52.318;4.644;2023-01-01T08:24:21;0.70;;;0.70;;
10150;SDS011;5116;52.318;4.644;2023-01-01T08:26:49;0.77;;;0.77;;
10150;SDS011;5116;52.318;4.644;2023-01-01T08:29:16;0.87;;;0.87;;
10150;SDS011;5116;52.318;4.644;2023-01-01T08:31:44;0.80;;;0.80;;
10150;SDS011;5116;52.318;4.644;2023-01-01T08:34:11;1.03;;;1.00;;
10150;SDS011;5116;52.318;4.644;2023-01-01T08:36:39;1.03;;;0.93;;
10150;SDS011;5116;52.318;4.644;2023-01-01T08:39:06;1.47;;;1.10;;
10150;SDS011;5116;52.318;4.644;2023-01-01T08:41:34;1.13;;;0.87;;
10150;SDS011;5116;52.318;4.644;2023-01-01T08:44:02;2.43;;;1.13;;
10150;SDS011;5116;52.318;4.644;2023-01-01T08:46:29;1.43;;;1.10;;
10150;SDS011;5116;52.318;4.644;2023-01-01T08:48:57;0.90;;;0.90;;
10150;SDS011;5116;52.318;4.644;2023-01-01T08:51:24;0.97;;;0.90;;
10150;SDS011;5116;52.318;4.644;2023-01-01T08:53:51;1.10;;;1.00;;
10150;SDS011;5116;52.318;4.644;2023-01-01T08:56:18;1.00;;;1.00;;
10150;SDS011;5116;52.318;4.644;2023-01-01T08:58:46;0.90;;;0.90;;
10150;SDS011;5116;52.318;4.644;2023-01-01T09:01:14;0.90;;;0.90;;
10150;SDS011;5116;52.318;4.644;2023-01-01T09:03:42;2.33;;;1.03;;
10150;SDS011;5116;52.318;4.644;2023-01-01T09:06:09;1.13;;;1.00;;
10150;SDS011;5116;52.318;4.644;2023-01-01T09:08:37;0.70;;;0.70;;
10150;SDS011;5116;52.318;4.644;2023-01-01T09:11:04;2.73;;;0.97;;
10150;SDS011;5116;52.318;4.644;2023-01-01T09:13:31;1.43;;;1.17;;
10150;SDS011;5116;52.318;4.644;2023-01-01T09:15:59;1.67;;;0.83;;
10150;SDS011;5116;52.318;4.644;2023-01-01T09:18:27;2.37;;;1.10;;
10150;SDS011;5116;52.318;4.644;2023-01-01T09:20:54;2.83;;;1.03;;
10150;SDS011;5116;52.318;4.644;2023-01-01T09:23:21;2.33;;;1.10;;
10150;SDS011;5116;52.318;4.644;2023-01-01T09:25:49;2.45;;;1.20;;
10150;SDS011;5116;52.318;4.644;2023-01-01T09:28:16;0.90;;;0.90;;
10150;SDS011;5116;52.318;4.644;2023-01-01T09:30:51;1.10;;;1.10;;
10150;SDS011;5116;52.318;4.644;2023-01-01T09:33:18;1.20;;;0.90;;
10150;SDS011;5116;52.318;4.644;2023-01-01T09:35:46;0.97;;;0.97;;
10150;SDS011;5116;52.318;4.644;2023-01-01T09:38:13;0.90;;;0.77;;
10150;SDS011;5116;52.318;4.644;2023-01-01T09:46:06;1.13;;;1.07;;
10150;SDS011;5116;52.318;4.644;2023-01-01T09:48:35;0.70;;;0.70;;
10150;SDS011;5116;52.318;4.644;2023-01-01T09:51:04;0.87;;;0.87;;
10150;SDS011;5116;52.318;4.644;2023-01-01T09:53:41;0.63;;;0.63;;
10150;SDS011;5116;52.318;4.644;2023-01-01T09:56:14;1.00;;;1.00;;
10150;SDS011;5116;52.318;4.644;2023-01-01T09:58:43;1.13;;;0.93;;
10150;SDS011;5116;52.318;4.644;2023-01-01T10:03:59;1.17;;;1.10;;
10150;SDS011;5116;52.318;4.644;2023-01-01T10:06:31;0.83;;;0.83;;
10150;SDS011;5116;52.318;4.644;2023-01-01T10:09:15;0.93;;;0.80;;
10150;SDS011;5116;52.318;4.644;2023-01-01T10:11:51;0.70;;;0.70;;
10150;SDS011;5116;52.318;4.644;2023-01-01T10:14:29;0.80;;;0.80;;
10150;SDS011;5116;52.318;4.644;2023-01-01T10:16:59;1.37;;;1.27;;
10150;SDS011;5116;52.318;4.644;2023-01-01T10:21:56;1.00;;;1.00;;
10150;SDS011;5116;52.318;4.644;2023-01-01T10:26:52;0.80;;;0.80;;
10150;SDS011;5116;52.318;4.644;2023-01-01T10:29:21;2.43;;;1.27;;
10150;SDS011;5116;52.318;4.644;2023-01-01T10:31:50;0.90;;;0.90;;
10150;SDS011;5116;52.318;4.644;2023-01-01T10:34:24;0.97;;;0.97;;
10150;SDS011;5116;52.318;4.644;2023-01-01T10:36:58;0.90;;;0.90;;
10150;SDS011;5116;52.318;4.644;2023-01-01T10:39:26;0.80;;;0.80;;
10150;SDS011;5116;52.318;4.644;2023-01-01T10:41:54;3.20;;;1.43;;
10150;SDS011;5116;52.318;4.644;2023-01-01T10:44:30;1.03;;;0.93;;
10150;SDS011;5116;52.318;4.644;2023-01-01T10:47:00;0.97;;;0.97;;
10150;SDS011;5116;52.318;4.644;2023-01-01T10:49:28;0.80;;;0.80;;
10150;SDS011;5116;52.318;4.644;2023-01-01T10:51:56;0.80;;;0.80;;
10150;SDS011;5116;52.318;4.644;2023-01-01T10:54:31;2.93;;;1.23;;
10150;SDS011;5116;52.318;4.644;2023-01-01T10:57:11;1.17;;;0.87;;
10150;SDS011;5116;52.318;4.644;2023-01-01T10:59:39;1.30;;;0.90;;
10150;SDS011;5116;52.318;4.644;2023-01-01T11:02:26;0.70;;;0.70;;
10150;SDS011;5116;52.318;4.644;2023-01-01T11:05:14;1.40;;;1.30;;
10150;SDS011;5116;52.318;4.644;2023-01-01T11:07:47;0.90;;;0.90;;
10150;SDS011;5116;52.318;4.644;2023-01-01T11:10:22;0.73;;;0.73;;
10150;SDS011;5116;52.318;4.644;2023-01-01T11:12:51;1.70;;;1.00;;
10150;SDS011;5116;52.318;4.644;2023-01-01T11:15:39;0.70;;;0.70;;
10150;SDS011;5116;52.318;4.644;2023-01-01T11:18:11;0.83;;;0.83;;
10150;SDS011;5116;52.318;4.644;2023-01-01T11:20:39;1.47;;;1.27;;
10150;SDS011;5116;52.318;4.644;2023-01-01T11:23:17;0.80;;;0.80;;
10150;SDS011;5116;52.318;4.644;2023-01-01T11:28:43;1.33;;;1.00;;
10150;SDS011;5116;52.318;4.644;2023-01-01T11:31:25;1.83;;;0.97;;
10150;SDS011;5116;52.318;4.644;2023-01-01T11:33:54;0.77;;;0.77;;
10150;SDS011;5116;52.318;4.644;2023-01-01T11:36:33;1.00;;;1.00;;
10150;SDS011;5116;52.318;4.644;2023-01-01T11:39:21;0.80;;;0.80;;
10150;SDS011;5116;52.318;4.644;2023-01-01T11:41:53;0.90;;;0.90;;
10150;SDS011;5116;52.318;4.644;2023-01-01T11:44:26;0.83;;;0.83;;
10150;SDS011;5116;52.318;4.644;2023-01-01T11:46:56;0.70;;;0.70;;
10150;SDS011;5116;52.318;4.644;2023-01-01T11:49:25;1.63;;;1.10;;
10150;SDS011;5116;52.318;4.644;2023-01-01T11:51:53;1.50;;;1.40;;
10150;SDS011;5116;52.318;4.644;2023-01-01T11:56:48;0.70;;;0.70;;
10150;SDS011;5116;52.318;4.644;2023-01-01T11:59:17;0.87;;;0.87;;
10150;SDS011;5116;52.318;4.644;2023-01-01T12:01:51;0.90;;;0.90;;
10150;SDS011;5116;52.318;4.644;2023-01-01T12:04:40;1.30;;;1.07;;
10150;SDS011;5116;52.318;4.644;2023-01-01T12:07:10;0.90;;;0.90;;
10150;SDS011;5116;52.318;4.644;2023-01-01T12:12:56;0.80;;;0.80;;
10150;SDS011;5116;52.318;4.644;2023-01-01T12:15:05;1.03;;;0.80;;
10150;SDS011;5116;52.318;4.644;2023-01-01T12:17:41;1.23;;;0.80;;
10150;SDS011;5116;52.318;4.644;2023-01-01T12:20:11;0.90;;;0.90;;
10150;SDS011;5116;52.318;4.644;2023-01-01T12:22:39;0.90;;;0.90;;
10150;SDS011;5116;52.318;4.644;2023-01-01T12:25:11;1.13;;;1.10;;
10150;SDS011;5116;52.318;4.644;2023-01-01T12:46:30;1.10;;;1.00;;
10150;SDS011;5116;52.318;4.644;2023-01-01T12:49:06;0.87;;;0.87;;
10150;SDS011;5116;52.318;4.644;2023-01-01T12:56:59;1.70;;;0.90;;
10150;SDS011;5116;52.318;4.644;2023-01-01T12:59:29;1.13;;;1.13;;
10150;SDS011;5116;52.318;4.644;2023-01-01T13:01:59;2.20;;;1.10;;
10150;SDS011;5116;52.318;4.644;2023-01-01T13:04:28;1.20;;;1.10;;
10150;SDS011;5116;52.318;4.644;2023-01-01T13:06:57;0.80;;;0.80;;
10150;SDS011;5116;52.318;4.644;2023-01-01T13:09:29;1.23;;;1.10;;
10150;SDS011;5116;52.318;4.644;2023-01-01T13:12:03;0.90;;;0.90;;
10150;SDS011;5116;52.318;4.644;2023-01-01T13:14:39;0.90;;;0.90;;
10150;SDS011;5116;52.318;4.644;2023-01-01T13:17:20;2.23;;;1.30;;
10150;SDS011;5116;52.318;4.644;2023-01-01T13:19:57;0.77;;;0.77;;
10150;SDS011;5116;52.318;4.644;2023-01-01T13:25:04;0.80;;;0.80;;
10150;SDS011;5116;52.318;4.644;2023-01-01T13:49:05;2.33;;;1.57;;
10150;SDS011;5116;52.318;4.644;2023-01-01T13:51:44;2.97;;;1.00;;
10150;SDS011;5116;52.318;4.644;2023-01-01T13:54:53;0.83;;;0.83;;
10150;SDS011;5116;52.318;4.644;2023-01-01T14:02:41;0.90;;;0.90;;
10150;SDS011;5116;52.318;4.644;2023-01-01T14:07:54;4.90;;;0.97;;
10150;SDS011;5116;52.318;4.644;2023-01-01T14:10:23;0.90;;;0.90;;
10150;SDS011;5116;52.318;4.644;2023-01-01T14:12:51;0.80;;;0.80;;
10150;SDS011;5116;52.318;4.644;2023-01-01T14:15:23;2.90;;;1.10;;
10150;SDS011;5116;52.318;4.644;2023-01-01T14:17:51;2.27;;;1.00;;
10150;SDS011;5116;52.318;4.644;2023-01-01T14:20:20;1.13;;;1.00;;
10150;SDS011;5116;52.318;4.644;2023-01-01T14:22:49;0.97;;;0.97;;
10150;SDS011;5116;52.318;4.644;2023-01-01T14:25:19;1.00;;;0.90;;
10150;SDS011;5116;52.318;4.644;2023-01-01T14:27:49;0.80;;;0.80;;
10150;SDS011;5116;52.318;4.644;2023-01-01T14:30:16;0.97;;;0.97;;
10150;SDS011;5116;52.318;4.644;2023-01-01T14:32:44;1.30;;;1.00;;
10150;SDS011;5116;52.318;4.644;2023-01-01T14:35:13;1.17;;;1.17;;
10150;SDS011;5116;52.318;4.644;2023-01-01T14:37:41;1.03;;;1.00;;
10150;SDS011;5116;52.318;4.644;2023-01-01T14:42:43;0.70;;;0.70;;
10150;SDS011;5116;52.318;4.644;2023-01-01T14:45:13;2.07;;;1.17;;
10150;SDS011;5116;52.318;4.644;2023-01-01T14:47:40;0.90;;;0.90;;
10150;SDS011;5116;52.318;4.644;2023-01-01T14:50:12;1.13;;;1.10;;
10150;SDS011;5116;52.318;4.644;2023-01-01T14:52:44;1.33;;;1.10;;
10150;SDS011;5116;52.318;4.644;2023-01-01T14:55:15;0.97;;;0.97;;
10150;SDS011;5116;52.318;4.644;2023-01-01T14:57:44;1.00;;;1.00;;
10150;SDS011;5116;52.318;4.644;2023-01-01T15:00:23;0.93;;;0.93;;
10150;SDS011;5116;52.318;4.644;2023-01-01T15:02:50;1.40;;;1.30;;
10150;SDS011;5116;52.318;4.644;2023-01-01T15:07:55;1.73;;;1.10;;
10150;SDS011;5116;52.318;4.644;2023-01-01T15:10:25;1.87;;;1.10;;
10150;SDS011;5116;52.318;4.644;2023-01-01T15:12:53;0.87;;;0.87;;
10150;SDS011;5116;52.318;4.644;2023-01-01T15:15:40;1.33;;;1.10;;
10150;SDS011;5116;52.318;4.644;2023-01-01T15:20:53;1.40;;;0.97;;
10150;SDS011;5116;52.318;4.644;2023-01-01T15:23:21;1.10;;;1.00;;
10150;SDS011;5116;52.318;4.644;2023-01-01T15:25:48;1.20;;;1.10;;
10150;SDS011;5116;52.318;4.644;2023-01-01T15:28:17;1.10;;;1.10;;
10150;SDS011;5116;52.318;4.644;2023-01-01T15:30:52;1.20;;;1.10;;
10150;SDS011;5116;52.318;4.644;2023-01-01T15:33:20;1.77;;;1.50;;
10150;SDS011;5116;52.318;4.644;2023-01-01T15:35:48;0.97;;;0.97;;
10150;SDS011;5116;52.318;4.644;2023-01-01T15:38:20;0.87;;;0.87;;
10150;SDS011;5116;52.318;4.644;2023-01-01T15:40:48;0.90;;;0.90;;
10150;SDS011;5116;52.318;4.644;2023-01-01T15:43:22;1.00;;;1.00;;
10150;SDS011;5116;52.318;4.644;2023-01-01T15:45:58;1.27;;;1.00;;
10150;SDS011;5116;52.318;4.644;2023-01-01T15:48:30;1.20;;;1.07;;
10150;SDS011;5116;52.318;4.644;2023-01-01T15:50:59;1.13;;;1.10;;
10150;SDS011;5116;52.318;4.644;2023-01-01T15:53:35;1.17;;;1.00;;
10150;SDS011;5116;52.318;4.644;2023-01-01T15:56:10;1.33;;;1.23;;
10150;SDS011;5116;52.318;4.644;2023-01-01T15:58:39;1.47;;;1.33;;
10150;SDS011;5116;52.318;4.644;2023-01-01T16:01:09;1.10;;;1.10;;
10150;SDS011;5116;52.318;4.644;2023-01-01T16:03:38;1.87;;;1.20;;
10150;SDS011;5116;52.318;4.644;2023-01-01T16:06:05;1.07;;;1.07;;
10150;SDS011;5116;52.318;4.644;2023-01-01T16:08:33;3.67;;;2.10;;
10150;SDS011;5116;52.318;4.644;2023-01-01T16:11:00;1.10;;;1.10;;
10150;SDS011;5116;52.318;4.644;2023-01-01T16:13:27;1.73;;;1.40;;
10150;SDS011;5116;52.318;4.644;2023-01-01T16:15:59;1.20;;;1.20;;
10150;SDS011;5116;52.318;4.644;2023-01-01T16:18:31;1.10;;;1.10;;
10150;SDS011;5116;52.318;4.644;2023-01-01T16:20:59;2.20;;;1.40;;
10150;SDS011;5116;52.318;4.644;2023-01-01T16:23:26;2.13;;;1.30;;
10150;SDS011;5116;52.318;4.644;2023-01-01T16:25:54;2.97;;;1.50;;
10150;SDS011;5116;52.318;4.644;2023-01-01T16:28:21;2.10;;;1.30;;
10150;SDS011;5116;52.318;4.644;2023-01-01T16:30:49;2.90;;;1.10;;
10150;SDS011;5116;52.318;4.644;2023-01-01T16:33:20;2.77;;;1.50;;
10150;SDS011;5116;52.318;4.644;2023-01-01T16:35:49;1.13;;;1.07;;
10150;SDS011;5116;52.318;4.644;2023-01-01T16:38:17;1.47;;;1.37;;
10150;SDS011;5116;52.318;4.644;2023-01-01T16:40:44;3.33;;;1.07;;
10150;SDS011;5116;52.318;4.644;2023-01-01T16:43:15;2.20;;;1.30;;
10150;SDS011;5116;52.318;4.644;2023-01-01T16:45:43;1.20;;;1.10;;
10150;SDS011;5116;52.318;4.644;2023-01-01T16:48:10;1.03;;;1.03;;
10150;SDS011;5116;52.318;4.644;2023-01-01T16:50:38;2.10;;;1.50;;
10150;SDS011;5116;52.318;4.644;2023-01-01T16:53:05;1.07;;;1.00;;
10150;SDS011;5116;52.318;4.644;2023-01-01T16:55:33;1.63;;;1.50;;
10150;SDS011;5116;52.318;4.644;2023-01-01T16:58:00;1.20;;;1.10;;
10150;SDS011;5116;52.318;4.644;2023-01-01T17:00:47;1.20;;;1.10;;
10150;SDS011;5116;52.318;4.644;2023-01-01T17:03:14;1.37;;;1.27;;
10150;SDS011;5116;52.318;4.644;2023-01-01T17:05:42;1.10;;;1.10;;
10150;SDS011;5116;52.318;4.644;2023-01-01T17:08:10;1.27;;;1.27;;
10150;SDS011;5116;52.318;4.644;2023-01-01T17:10:37;1.00;;;1.00;;
10150;SDS011;5116;52.318;4.644;2023-01-01T17:13:04;1.23;;;1.20;;